Time;durP1;ratioP1;P1;durP2;ratioP2;P2;SDS_P1;SDS_P2;PMS_P1;PMS_P2;Temp;Humidity;BMP_temperature;BMP_pressure;BME280_temperature;BME280_humidity;BME280_pressure;Samples;Min_cycle;Max_cycle;Signal;HPM_P1;HPM_P2
2023/12/28 00:01:53;;;;;;;3.22;2.92;;;;;;;9.33;92.94;100792.88;5094230;28;20031;-57
2023/12/28 00:04:18;;;;;;;6.95;3.95;;;;;;;9.40;92.89;100802.16;5108011;28;20111;-57
2023/12/28 00:06:44;;;;;;;3.88;3.20;;;;;;;9.36;93.57;100798.00;5111205;28;20447;-58
2023/12/28 00:09:09;;;;;;;4.22;2.83;;;;;;;9.35;94.26;100798.06;5110525;28;20023;-57
2023/12/28 00:11:37;;;;;;;6.50;3.00;;;;;;;9.33;94.07;100804.34;5111244;27;20112;-57
2023/12/28 00:14:03;;;;;;;4.97;3.22;;;;;;;9.35;94.13;100809.53;5111394;27;20015;-58
2023/12/28 00:16:32;;;;;;;3.60;3.30;;;;;;;9.36;94.75;100811.28;5111158;27;20028;-58
2023/12/28 00:18:58;;;;;;;3.88;3.42;;;;;;;9.58;92.92;100800.22;5092917;28;20023;-57
2023/12/28 00:21:23;;;;;;;6.13;3.63;;;;;;;9.33;94.93;100793.72;5112001;27;20405;-58
2023/12/28 00:23:48;;;;;;;3.30;3.00;;;;;;;9.29;96.24;100805.47;5110919;27;20051;-57
2023/12/28 00:26:14;;;;;;;3.38;3.08;;;;;;;9.33;95.43;100809.66;5111140;27;20100;-57
2023/12/28 00:28:39;;;;;;;3.70;3.20;;;;;;;9.28;95.65;100814.34;5111834;27;20531;-57
2023/12/28 00:31:05;;;;;;;4.43;3.60;;;;;;;9.23;97.25;100826.19;5090748;28;20024;-58
2023/12/28 00:33:30;;;;;;;3.83;3.40;;;;;;;9.23;97.48;100842.94;5112632;27;20527;-58
2023/12/28 00:35:55;;;;;;;4.97;3.25;;;;;;;9.24;97.40;100863.25;5111355;28;20023;-58
2023/12/28 00:38:21;;;;;;;5.15;3.50;;;;;;;9.21;97.92;100830.75;5110121;28;20106;-57
2023/12/28 00:40:46;;;;;;;3.42;3.13;;;;;;;9.27;97.24;100836.53;5110812;28;20232;-57
2023/12/28 00:43:11;;;;;;;4.65;3.00;;;;;;;9.24;97.73;100823.44;5111671;27;20471;-57
2023/12/28 00:45:37;;;;;;;3.35;2.83;;;;;;;9.28;97.63;100840.91;5093567;28;20105;-57
2023/12/28 00:48:03;;;;;;;3.75;3.45;;;;;;;9.29;97.59;100841.75;5110769;28;20135;-57
2023/12/28 00:50:31;;;;;;;5.40;3.63;;;;;;;9.24;98.38;100838.53;5111749;27;20031;-57
2023/12/28 00:52:56;;;;;;;3.60;3.30;;;;;;;9.27;98.46;100836.53;5109574;28;20035;-57
2023/12/28 00:55:22;;;;;;;7.32;3.75;;;;;;;9.17;99.10;100835.34;5109386;28;20035;-58
2023/12/28 00:57:47;;;;;;;7.15;3.80;;;;;;;9.16;99.59;100831.00;5092098;28;20026;-58
2023/12/28 01:00:13;;;;;;;3.35;3.08;;;;;;;9.26;98.94;100845.44;5110268;28;20045;-57
2023/12/28 01:02:38;;;;;;;3.15;2.95;;;;;;;9.43;97.95;100847.13;5111070;28;20024;-57
2023/12/28 01:05:04;;;;;;;7.07;4.03;;;;;;;9.37;98.28;100859.91;5110668;28;20027;-57
2023/12/28 01:07:29;;;;;;;4.57;3.25;;;;;;;9.36;98.68;100856.38;5111033;28;20032;-57
2023/12/28 01:09:55;;;;;;;5.70;3.30;;;;;;;9.29;99.53;100842.63;5109406;28;20031;-57
2023/12/28 01:12:20;;;;;;;5.50;3.40;;;;;;;9.39;98.99;100850.06;5109843;28;20080;-58
2023/12/28 01:14:46;;;;;;;4.47;3.58;;;;;;;9.33;99.78;100845.94;5107606;28;20501;-58
2023/12/28 01:17:11;;;;;;;3.47;3.17;;;;;;;9.42;99.09;100852.53;5092786;28;20038;-58
2023/12/28 01:19:36;;;;;;;6.35;3.45;;;;;;;9.43;98.87;100862.19;5110222;28;20020;-58
2023/12/28 01:22:04;;;;;;;5.00;3.53;;;;;;;9.41;100.00;100859.66;5110290;28;20471;-58
2023/12/28 01:24:30;;;;;;;4.57;3.40;;;;;;;9.42;99.65;100863.16;5109023;28;20474;-58
2023/12/28 01:26:55;;;;;;;4.43;3.50;;;;;;;9.41;99.98;100862.28;5110126;28;20047;-58
2023/12/28 01:29:21;;;;;;;6.40;3.10;;;;;;;9.32;100.00;100863.69;5109919;28;20501;-57
2023/12/28 01:31:46;;;;;;;3.30;3.00;;;;;;;9.33;100.00;100864.53;5110273;28;20102;-58
2023/12/28 01:34:12;;;;;;;4.60;3.53;;;;;;;9.33;100.00;100861.88;5110261;28;20055;-57
2023/12/28 01:36:41;;;;;;;5.82;3.38;;;;;;;9.32;100.00;100857.50;5092073;28;20394;-57
2023/12/28 01:39:06;;;;;;;3.65;3.10;;;;;;;9.39;100.00;100868.63;5109721;28;20033;-58
2023/12/28 01:41:32;;;;;;;4.25;3.38;;;;;;;9.30;100.00;100870.03;5110018;28;20032;-57
2023/12/28 01:43:57;;;;;;;3.88;3.42;;;;;;;9.37;100.00;100884.63;5109970;28;20036;-58
2023/12/28 01:46:23;;;;;;;4.95;3.05;;;;;;;9.33;100.00;100875.16;5109728;28;20040;-58
2023/12/28 01:48:50;;;;;;;4.82;3.70;;;;;;;9.27;100.00;100871.03;5091828;28;20042;-58
2023/12/28 01:51:16;;;;;;;4.40;3.15;;;;;;;9.31;100.00;100882.34;5091996;28;20039;-58
2023/12/28 01:53:43;;;;;;;3.42;3.13;;;;;;;9.37;100.00;100883.78;5109678;28;20462;-57
2023/12/28 01:56:09;;;;;;;4.32;3.33;;;;;;;9.28;100.00;100874.56;5107327;28;20028;-57
2023/12/28 01:58:36;;;;;;;6.82;3.38;;;;;;;9.33;100.00;100883.97;5110138;28;20034;-57
2023/12/28 02:01:02;;;;;;;3.70;3.30;;;;;;;9.28;100.00;100880.72;5110042;28;20114;-58
2023/12/28 02:03:28;;;;;;;4.97;3.35;;;;;;;9.35;100.00;100875.91;5110178;28;20146;-57
2023/12/28 02:05:54;;;;;;;3.30;3.00;;;;;;;9.24;100.00;100881.84;5091965;28;20041;-57
2023/12/28 02:08:22;;;;;;;5.05;2.83;;;;;;;9.32;100.00;100879.59;5112140;28;20462;-57
2023/12/28 02:10:48;;;;;;;3.78;3.10;;;;;;;9.24;100.00;100896.91;5113647;28;20031;-57
2023/12/28 02:13:14;;;;;;;5.10;3.22;;;;;;;9.25;100.00;100888.00;5113441;28;20538;-58
2023/12/28 02:15:39;;;;;;;4.10;2.85;;;;;;;9.28;100.00;100879.84;5094843;28;20031;-58
2023/12/28 02:18:21;;;;;;;5.45;3.70;;;;;;;9.27;100.00;100881.66;5113869;28;20479;-57
2023/12/28 02:20:48;;;;;;;3.45;3.15;;;;;;;9.24;100.00;100881.00;5113412;28;20080;-57
2023/12/28 02:23:14;;;;;;;4.47;3.08;;;;;;;9.19;100.00;100891.84;5112868;28;20420;-57
2023/12/28 02:25:39;;;;;;;8.15;3.10;;;;;;;9.16;100.00;100889.38;5094366;28;20035;-57
2023/12/28 02:28:05;;;;;;;5.40;3.58;;;;;;;9.16;100.00;100884.06;5114767;27;20087;-57
2023/12/28 02:30:33;;;;;;;5.75;3.50;;;;;;;9.31;100.00;100885.84;5094725;28;20079;-57
2023/12/28 02:33:23;;;;;;;4.18;3.58;;;;;;;9.22;100.00;100867.78;5113159;28;20027;-58
2023/12/28 02:36:01;;;;;;;8.18;3.47;;;;;;;9.16;100.00;100878.75;5113820;27;20570;-57
2023/12/28 02:38:29;;;;;;;5.47;3.38;;;;;;;9.22;100.00;100866.94;5095323;28;20032;-57
2023/12/28 02:40:56;;;;;;;4.03;3.55;;;;;;;9.17;100.00;100869.84;5096459;28;20047;-57
2023/12/28 02:43:22;;;;;;;6.15;3.30;;;;;;;9.21;100.00;100875.84;5095107;27;20084;-57
2023/12/28 02:45:47;;;;;;;4.35;3.00;;;;;;;9.18;100.00;100863.63;5113457;27;20082;-57
2023/12/28 02:48:13;;;;;;;5.55;2.95;;;;;;;9.17;100.00;100874.31;5078153;28;20151;-57
2023/12/28 02:50:38;;;;;;;3.67;2.97;;;;;;;9.26;100.00;100879.09;5072179;28;20621;-57
2023/12/28 02:53:04;;;;;;;5.25;2.80;;;;;;;9.22;100.00;100890.81;5071978;28;20024;-57
2023/12/28 02:55:29;;;;;;;3.67;2.85;;;;;;;9.18;100.00;100884.00;5072077;28;20031;-57
2023/12/28 02:58:00;;;;;;;4.97;3.30;;;;;;;9.22;100.00;100872.25;5072404;28;20101;-57
2023/12/28 03:00:27;;;;;;;4.82;2.60;;;;;;;9.32;100.00;100866.34;5068425;28;20058;-57
2023/12/28 03:02:52;;;;;;;5.32;2.95;;;;;;;9.33;100.00;100864.53;5072113;28;20025;-57
2023/12/28 03:05:20;;;;;;;4.35;3.03;;;;;;;9.26;100.00;100864.00;5072745;28;20024;-57
2023/12/28 03:07:46;;;;;;;4.15;3.50;;;;;;;9.35;100.00;100846.69;5071896;28;20024;-57
2023/12/28 03:10:11;;;;;;;4.93;3.03;;;;;;;9.32;100.00;100853.06;5070094;28;20035;-57
2023/12/28 03:12:37;;;;;;;4.18;2.55;;;;;;;9.30;100.00;100852.28;5072078;28;20024;-57
2023/12/28 03:15:03;;;;;;;5.55;3.88;;;;;;;9.27;100.00;100857.78;5073076;28;20025;-57
2023/12/28 03:17:30;;;;;;;4.82;3.03;;;;;;;9.25;100.00;100851.69;5071763;28;20025;-57
2023/12/28 03:19:56;;;;;;;5.63;3.17;;;;;;;9.27;100.00;100847.16;5070922;28;20021;-57
2023/12/28 03:22:21;;;;;;;4.63;2.80;;;;;;;9.27;100.00;100868.41;5070641;28;20025;-57
2023/12/28 03:24:47;;;;;;;6.80;2.75;;;;;;;9.26;100.00;100873.78;5071198;28;20023;-56
2023/12/28 03:27:12;;;;;;;5.95;2.83;;;;;;;9.29;100.00;100863.88;5072234;28;20036;-57
2023/12/28 03:29:38;;;;;;;4.75;3.28;;;;;;;9.30;100.00;100868.22;5071323;28;20360;-57
2023/12/28 03:32:03;;;;;;;6.57;3.28;;;;;;;9.35;100.00;100886.50;5069956;28;20428;-57
2023/12/28 03:34:30;;;;;;;7.38;3.30;;;;;;;9.54;99.57;100881.88;5071012;28;20713;-57
2023/12/28 03:36:56;;;;;;;10.43;3.15;;;;;;;9.44;100.00;100891.31;5071199;28;20067;-57
2023/12/28 03:39:23;;;;;;;3.42;2.63;;;;;;;9.58;99.29;100889.66;5071061;28;20031;-57
2023/12/28 03:41:48;;;;;;;5.80;3.00;;;;;;;9.54;99.71;100897.78;5070025;28;20027;-57
2023/12/28 03:44:14;;;;;;;4.25;2.60;;;;;;;9.54;99.19;100879.22;5072479;28;20024;-57
2023/12/28 03:46:39;;;;;;;5.22;2.95;;;;;;;9.57;99.60;100877.31;5073660;28;20100;-57
2023/12/28 03:49:05;;;;;;;7.78;3.10;;;;;;;9.68;97.45;100874.91;5113561;27;20028;-57
2023/12/28 03:51:33;;;;;;;6.35;2.85;;;;;;;9.55;97.89;100854.34;5111980;28;20023;-57
2023/12/28 03:53:59;;;;;;;8.00;3.28;;;;;;;9.64;97.40;100876.00;5093615;28;20034;-57
2023/12/28 03:56:25;;;;;;;5.93;2.92;;;;;;;9.72;96.59;100871.97;5111721;28;20020;-58
2023/12/28 03:58:51;;;;;;;8.82;3.55;;;;;;;9.69;96.38;100872.13;5111437;28;20047;-58
2023/12/28 04:01:18;;;;;;;5.78;3.42;;;;;;;9.91;96.12;100877.03;5111048;28;20382;-57
2023/12/28 04:03:44;;;;;;;4.50;2.67;;;;;;;9.67;96.37;100863.41;5111381;28;20016;-57
2023/12/28 04:06:09;;;;;;;5.43;2.58;;;;;;;9.61;97.13;100866.41;5111440;27;20023;-57
2023/12/28 04:08:38;;;;;;;5.68;2.75;;;;;;;9.64;96.55;100870.69;5111174;28;20103;-58
2023/12/28 04:11:03;;;;;;;5.95;2.88;;;;;;;9.66;95.78;100867.00;5093056;28;20015;-57
2023/12/28 04:13:29;;;;;;;8.88;2.75;;;;;;;9.79;95.68;100869.78;5113070;27;20391;-57
2023/12/28 04:15:54;;;;;;;7.55;3.35;;;;;;;9.76;95.38;100881.47;5111746;28;20154;-57
2023/12/28 04:18:20;;;;;;;7.78;2.75;;;;;;;9.72;95.88;100876.41;5092659;28;20020;-58
2023/12/28 04:20:45;;;;;;;10.70;3.08;;;;;;;9.64;96.13;100860.06;5112892;27;20016;-57
2023/12/28 04:23:11;;;;;;;6.28;2.88;;;;;;;9.77;94.73;100884.97;5111445;28;20572;-57
2023/12/28 04:25:36;;;;;;;5.38;2.55;;;;;;;9.73;95.26;100872.81;5095882;28;20047;-58
2023/12/28 04:28:04;;;;;;;4.85;2.70;;;;;;;9.88;93.40;100879.00;5111258;28;20055;-58
2023/12/28 04:30:30;;;;;;;13.45;2.97;;;;;;;9.89;93.92;100892.22;5109172;27;20031;-58
2023/12/28 04:32:55;;;;;;;7.95;2.90;;;;;;;9.93;93.85;100879.59;5092744;28;20429;-57
2023/12/28 04:35:20;;;;;;;5.47;2.70;;;;;;;9.79;94.42;100875.09;5110754;28;20066;-57
2023/12/28 04:37:46;;;;;;;5.32;2.45;;;;;;;9.83;94.22;100878.44;5110954;28;20031;-58
2023/12/28 04:40:14;;;;;;;7.60;2.72;;;;;;;9.91;93.56;100905.38;5110382;28;20032;-57
2023/12/28 04:42:39;;;;;;;10.40;3.00;;;;;;;9.69;94.42;100874.78;5111264;28;20076;-57
2023/12/28 04:45:08;;;;;;;5.55;2.90;;;;;;;9.95;93.48;100877.72;5112736;28;20039;-58
2023/12/28 04:47:33;;;;;;;5.55;3.08;;;;;;;9.98;92.91;100893.47;5088452;28;20135;-58
2023/12/28 04:49:59;;;;;;;6.50;2.95;;;;;;;9.81;94.15;100894.47;5110599;28;20127;-58
2023/12/28 04:52:24;;;;;;;10.52;3.70;;;;;;;9.76;94.42;100870.84;5092121;28;20424;-58
2023/12/28 04:54:50;;;;;;;10.95;3.83;;;;;;;9.76;93.94;100878.81;5091779;28;20031;-58
2023/12/28 04:57:16;;;;;;;4.75;3.13;;;;;;;9.93;92.44;100882.25;5092392;28;20024;-58
2023/12/28 04:59:41;;;;;;;8.75;2.97;;;;;;;9.91;92.66;100877.03;5110525;28;20390;-58
2023/12/28 05:02:07;;;;;;;9.30;4.22;;;;;;;9.92;92.44;100884.06;5092765;28;20019;-57
2023/12/28 05:04:36;;;;;;;8.63;3.58;;;;;;;10.21;90.93;100884.97;5111163;28;20039;-57
2023/12/28 05:07:01;;;;;;;7.32;3.22;;;;;;;10.18;90.67;100893.13;5112462;28;20483;-57
2023/12/28 05:09:27;;;;;;;8.65;2.90;;;;;;;9.97;91.41;100910.34;5109769;28;20024;-57
2023/12/28 05:11:52;;;;;;;6.72;2.55;;;;;;;10.06;91.64;100906.28;5110914;28;20031;-57
2023/12/28 05:14:17;;;;;;;9.95;3.13;;;;;;;10.04;90.72;100921.47;5112713;28;20028;-57
2023/12/28 05:16:43;;;;;;;10.20;3.38;;;;;;;9.87;92.13;100899.41;5111220;28;20148;-57
2023/12/28 05:19:09;;;;;;;10.80;4.07;;;;;;;9.94;90.19;100897.25;5110706;28;20375;-58
2023/12/28 05:21:34;;;;;;;11.15;4.20;;;;;;;9.87;90.33;100879.97;5091890;28;20382;-57
2023/12/28 05:23:59;;;;;;;7.93;3.13;;;;;;;9.96;90.25;100901.50;5110129;28;20517;-57
2023/12/28 05:26:26;;;;;;;7.60;2.80;;;;;;;9.86;90.68;100886.25;5113113;28;20401;-57
2023/12/28 05:28:51;;;;;;;6.32;3.13;;;;;;;9.93;90.32;100884.91;5109800;28;20030;-57
2023/12/28 05:31:16;;;;;;;10.85;3.47;;;;;;;9.80;90.71;100883.94;5092927;28;20027;-58
2023/12/28 05:33:42;;;;;;;10.18;3.40;;;;;;;9.76;89.88;100881.47;5111675;28;20413;-57
2023/12/28 05:36:07;;;;;;;13.95;4.00;;;;;;;9.73;89.93;100886.09;5092242;28;20059;-57
2023/12/28 05:38:35;;;;;;;8.10;2.58;;;;;;;9.76;89.68;100893.88;5109177;28;20034;-57
2023/12/28 05:41:00;;;;;;;11.32;3.60;;;;;;;9.73;89.49;100899.38;5110383;28;20032;-57
2023/12/28 05:43:26;;;;;;;11.18;2.80;;;;;;;9.74;89.24;100890.47;5112314;27;20028;-58
2023/12/28 05:45:51;;;;;;;12.27;2.65;;;;;;;9.73;89.06;100894.06;5114059;27;20466;-57
2023/12/28 05:48:20;;;;;;;7.15;2.50;;;;;;;9.78;89.24;100887.53;5095801;28;20105;-57
2023/12/28 05:50:45;;;;;;;5.40;2.22;;;;;;;9.73;89.80;100883.44;5115098;27;20524;-57
2023/12/28 05:53:13;;;;;;;6.07;2.40;;;;;;;9.90;89.15;100890.41;5113675;27;20027;-57
2023/12/28 05:55:40;;;;;;;5.70;2.72;;;;;;;9.74;90.16;100907.25;5114960;27;20041;-57
2023/12/28 05:58:09;;;;;;;8.77;3.13;;;;;;;9.75;90.10;100902.78;5114573;28;20026;-57
2023/12/28 06:00:36;;;;;;;15.13;3.50;;;;;;;9.72;89.81;100895.84;5096452;28;20027;-57
2023/12/28 06:03:02;;;;;;;6.15;2.45;;;;;;;9.78;90.71;100900.81;5113748;27;20023;-57
2023/12/28 06:05:28;;;;;;;10.55;2.75;;;;;;;9.79;90.59;100922.91;5116318;27;20565;-57
2023/12/28 06:07:53;;;;;;;11.52;3.42;;;;;;;9.75;90.93;100913.41;5100175;27;20030;-57
2023/12/28 06:10:19;;;;;;;14.23;3.03;;;;;;;9.76;90.91;100907.16;5094703;27;20042;-57
2023/12/28 06:12:45;;;;;;;8.75;3.13;;;;;;;9.88;89.78;100908.22;5111600;28;20051;-57
2023/12/28 06:15:10;;;;;;;8.25;3.00;;;;;;;9.78;91.22;100900.81;5113282;27;20030;-57
2023/12/28 06:17:35;;;;;;;8.10;3.53;;;;;;;9.94;89.80;100930.00;5096431;28;20506;-57
2023/12/28 06:20:02;;;;;;;10.85;3.88;;;;;;;9.83;89.97;100945.72;5113970;27;20028;-57
2023/12/28 06:22:30;;;;;;;16.10;4.72;;;;;;;9.76;90.09;100909.81;5110913;27;20021;-57
2023/12/28 06:24:56;;;;;;;17.65;3.17;;;;;;;9.75;90.31;100916.94;5114758;27;20367;-57
2023/12/28 06:27:23;;;;;;;10.68;2.92;;;;;;;9.84;90.15;100923.50;5113644;27;20034;-57
2023/12/28 06:29:52;;;;;;;10.45;3.08;;;;;;;9.74;90.41;100922.34;5112863;28;20032;-57
2023/12/28 06:32:17;;;;;;;13.88;3.60;;;;;;;9.88;89.22;100940.09;5111658;27;20024;-57
2023/12/28 06:34:42;;;;;;;13.30;3.78;;;;;;;9.73;90.47;100940.06;5114156;27;20033;-57
2023/12/28 06:37:08;;;;;;;10.00;3.13;;;;;;;9.83;89.73;100936.88;5113431;28;20027;-57
2023/12/28 06:39:36;;;;;;;10.18;2.92;;;;;;;9.69;90.03;100929.72;5093931;28;20050;-57
2023/12/28 06:42:04;;;;;;;17.05;3.25;;;;;;;9.66;90.66;100922.78;5111126;28;20530;-57
2023/12/28 06:44:29;;;;;;;17.05;3.88;;;;;;;9.66;90.52;100929.91;5113775;27;20020;-57
2023/12/28 06:46:55;;;;;;;14.80;3.42;;;;;;;9.84;88.97;100947.41;5112687;28;20112;-57
2023/12/28 06:49:20;;;;;;;11.50;3.20;;;;;;;9.75;89.45;100940.84;5112656;28;20102;-57
2023/12/28 06:51:46;;;;;;;18.17;3.75;;;;;;;9.65;90.25;100933.50;5094516;28;20015;-57
2023/12/28 06:54:11;;;;;;;11.85;3.13;;;;;;;9.69;89.93;100951.81;5092599;28;20062;-57
2023/12/28 06:56:37;;;;;;;9.07;3.20;;;;;;;9.85;89.76;100942.94;5113711;27;20016;-57
2023/12/28 06:59:02;;;;;;;10.52;3.47;;;;;;;9.63;90.44;100936.22;5112310;28;20437;-57
2023/12/28 07:01:28;;;;;;;13.95;3.35;;;;;;;9.65;89.33;100933.50;5094612;28;20067;-57
2023/12/28 07:03:53;;;;;;;9.93;3.60;;;;;;;9.65;89.71;100934.34;5112401;28;20028;-57
2023/12/28 07:06:18;;;;;;;15.52;4.05;;;;;;;9.57;89.66;100941.91;5112734;28;20481;-57
2023/12/28 07:08:44;;;;;;;16.00;3.70;;;;;;;9.68;89.88;100943.94;5094961;27;20087;-57
2023/12/28 07:11:11;;;;;;;13.38;3.30;;;;;;;9.67;90.15;100953.69;5094101;28;20054;-57
2023/12/28 07:13:36;;;;;;;13.93;2.83;;;;;;;9.55;90.80;100934.00;5112182;28;20036;-57
2023/12/28 07:16:02;;;;;;;19.88;3.03;;;;;;;9.51;90.66;100939.59;5095295;28;20501;-57
2023/12/28 07:18:27;;;;;;;17.25;4.35;;;;;;;9.60;90.22;100949.69;5094207;27;20472;-57
2023/12/28 07:20:54;;;;;;;15.25;3.35;;;;;;;9.75;88.78;100963.88;5112325;28;20051;-57
2023/12/28 07:23:19;;;;;;;14.65;4.35;;;;;;;9.55;90.31;100965.03;5093600;28;20016;-57
2023/12/28 07:25:44;;;;;;;9.68;2.92;;;;;;;9.58;89.85;100962.19;5096024;27;20027;-57
2023/12/28 07:28:10;;;;;;;14.30;4.45;;;;;;;9.59;90.09;100971.88;5094334;28;20012;-57
2023/12/28 07:30:36;;;;;;;12.68;3.50;;;;;;;9.53;91.06;100977.56;5112704;28;20027;-57
2023/12/28 07:33:01;;;;;;;15.40;3.72;;;;;;;9.46;92.70;100976.16;5112761;27;20038;-57
2023/12/28 07:35:27;;;;;;;7.85;2.80;;;;;;;9.56;92.12;100980.03;5113345;27;20029;-57
2023/12/28 07:37:52;;;;;;;8.93;3.78;;;;;;;9.50;92.33;100989.19;5114947;27;20027;-57
2023/12/28 07:40:17;;;;;;;8.82;3.72;;;;;;;9.59;91.82;100987.81;5092988;28;20110;-57
2023/12/28 07:42:43;;;;;;;10.82;3.33;;;;;;;9.61;91.89;100985.91;5092396;28;20418;-57
2023/12/28 07:45:08;;;;;;;13.35;3.78;;;;;;;9.60;91.60;100984.22;5111614;28;20020;-57
2023/12/28 07:47:34;;;;;;;10.18;2.67;;;;;;;9.53;92.70;100996.13;5111345;28;20044;-57
2023/12/28 07:50:00;;;;;;;12.35;3.42;;;;;;;9.61;92.03;100995.69;5111551;28;20110;-57
2023/12/28 07:52:28;;;;;;;9.18;3.50;;;;;;;9.50;92.83;100999.81;5111342;27;20031;-57
2023/12/28 07:54:54;;;;;;;10.45;3.47;;;;;;;9.56;92.10;101001.28;5089937;28;20379;-57
2023/12/28 07:57:20;;;;;;;8.27;3.15;;;;;;;9.60;91.99;101005.44;5111127;28;20027;-58
2023/12/28 07:59:46;;;;;;;8.98;3.85;;;;;;;9.61;91.78;100998.34;5093329;28;20023;-57
2023/12/28 08:02:11;;;;;;;14.18;3.50;;;;;;;9.66;91.95;100996.28;5092158;28;20043;-57
2023/12/28 08:04:37;;;;;;;9.30;3.78;;;;;;;9.60;92.02;101010.75;5113135;27;20034;-58
2023/12/28 08:07:02;;;;;;;11.82;3.35;;;;;;;9.55;92.85;101005.69;5116065;27;20020;-58
2023/12/28 08:09:27;;;;;;;11.82;3.90;;;;;;;9.77;91.50;100996.53;5094300;28;20053;-57
2023/12/28 08:11:53;;;;;;;10.45;3.15;;;;;;;9.76;91.27;101013.41;5123413;27;20037;-58
2023/12/28 08:14:21;;;;;;;20.85;5.05;;;;;;;9.62;91.42;101018.63;5092581;28;20028;-57
2023/12/28 08:16:46;;;;;;;16.50;3.53;;;;;;;9.62;91.70;101022.16;5109096;28;20028;-57
2023/12/28 08:19:11;;;;;;;12.88;3.72;;;;;;;9.57;92.20;101005.63;5111191;28;20407;-57
2023/12/28 08:21:37;;;;;;;13.30;3.40;;;;;;;9.53;92.57;100997.00;5092888;28;20032;-57
2023/12/28 08:24:05;;;;;;;15.40;3.45;;;;;;;9.67;91.53;101005.97;5097413;28;20035;-57
2023/12/28 08:26:32;;;;;;;7.63;2.95;;;;;;;9.68;91.87;101005.03;5092471;28;20106;-57
2023/12/28 08:28:59;;;;;;;14.52;3.80;;;;;;;9.68;91.81;100999.72;5111114;28;20024;-57
2023/12/28 08:31:24;;;;;;;14.77;3.83;;;;;;;9.58;92.03;100988.75;5093859;28;20054;-57
2023/12/28 08:33:52;;;;;;;13.23;3.60;;;;;;;9.66;91.70;101005.09;5095469;28;20051;-58
2023/12/28 08:36:17;;;;;;;13.85;3.63;;;;;;;9.75;91.85;101023.16;5091923;27;20054;-57
2023/12/28 08:38:47;;;;;;;13.68;2.97;;;;;;;9.68;91.38;101007.69;5110641;27;20106;-58
2023/12/28 08:41:23;;;;;;;10.07;3.17;;;;;;;9.82;91.01;101015.69;5110597;28;20092;-57
2023/12/28 08:43:50;;;;;;;12.38;3.50;;;;;;;9.91;90.69;101004.56;5111608;27;20019;-57
2023/12/28 08:46:15;;;;;;;11.30;2.85;;;;;;;9.81;91.34;101018.47;5092134;28;20106;-58
2023/12/28 08:48:42;;;;;;;19.65;4.43;;;;;;;9.89;89.94;100998.47;5088665;28;20128;-58
2023/12/28 08:51:07;;;;;;;10.43;3.25;;;;;;;9.91;90.47;101019.63;5091994;28;20394;-57
2023/12/28 08:53:32;;;;;;;14.23;3.85;;;;;;;9.90;91.26;101021.44;5087800;28;20015;-58
2023/12/28 08:55:58;;;;;;;15.20;3.78;;;;;;;9.98;89.58;101013.03;5088581;28;20042;-57
2023/12/28 08:58:23;;;;;;;17.77;4.63;;;;;;;9.92;90.26;101022.22;5088847;28;20012;-57
2023/12/28 09:00:50;;;;;;;10.38;3.78;;;;;;;10.02;90.13;101033.16;5089033;28;20386;-57
2023/12/28 09:03:15;;;;;;;11.75;3.60;;;;;;;10.14;89.22;101066.13;5089795;28;20039;-58
2023/12/28 09:05:40;;;;;;;22.52;3.83;;;;;;;10.04;89.59;101044.56;5088734;28;20028;-57
2023/12/28 09:08:08;;;;;;;16.45;3.80;;;;;;;10.06;89.42;101055.09;5088706;28;20023;-58
2023/12/28 09:10:34;;;;;;;12.23;3.42;;;;;;;9.93;90.56;101069.09;5109976;28;20031;-57
2023/12/28 09:12:59;;;;;;;15.48;3.60;;;;;;;9.97;89.92;101062.66;5093301;28;20028;-57
2023/12/28 09:15:25;;;;;;;10.73;2.85;;;;;;;9.97;89.73;101061.78;5086523;28;20089;-58
2023/12/28 09:17:50;;;;;;;12.13;3.05;;;;;;;10.04;88.89;101060.50;5092230;28;20032;-58
2023/12/28 09:20:16;;;;;;;10.85;2.88;;;;;;;9.94;89.86;101070.81;5092454;28;20073;-57
2023/12/28 09:22:41;;;;;;;10.55;2.97;;;;;;;10.08;88.85;101067.34;5091735;28;20493;-58
2023/12/28 09:25:07;;;;;;;15.02;3.60;;;;;;;9.98;89.57;101060.88;5091856;28;20024;-58
2023/12/28 09:27:33;;;;;;;14.98;3.28;;;;;;;9.96;89.71;101060.94;5094322;28;20321;-58
2023/12/28 09:29:58;;;;;;;17.85;4.78;;;;;;;9.91;89.70;101073.66;5092991;28;20020;-57
2023/12/28 09:32:26;;;;;;;15.40;3.60;;;;;;;10.06;89.44;101085.19;5092159;28;20111;-58
2023/12/28 09:34:51;;;;;;;9.85;3.38;;;;;;;9.99;89.19;101071.38;5095631;28;20505;-57
2023/12/28 09:37:17;;;;;;;12.43;3.63;;;;;;;9.96;90.04;101074.22;5094446;28;20028;-57
2023/12/28 09:39:42;;;;;;;15.38;3.40;;;;;;;10.22;88.66;101074.53;5090948;28;20028;-57
2023/12/28 09:42:19;;;;;;;14.05;3.40;;;;;;;9.98;89.45;101075.00;5095731;28;20030;-57
2023/12/28 09:44:45;;;;;;;25.00;7.22;;;;;;;10.04;88.89;101078.25;5095780;28;20035;-57
2023/12/28 09:47:12;;;;;;;15.30;3.92;;;;;;;10.03;88.74;101082.72;5097981;28;20064;-57
2023/12/28 09:49:40;;;;;;;14.85;3.75;;;;;;;9.95;89.76;101079.63;5087675;28;20024;-57
2023/12/28 09:52:06;;;;;;;14.05;3.33;;;;;;;10.04;89.60;101078.25;5102200;28;20016;-57
2023/12/28 09:54:32;;;;;;;22.65;4.05;;;;;;;10.03;88.90;101101.31;5108466;28;20382;-57
2023/12/28 09:56:57;;;;;;;8.90;3.13;;;;;;;10.05;88.59;101112.69;5095093;28;20028;-57
2023/12/28 09:59:26;;;;;;;14.68;3.75;;;;;;;10.03;89.24;101101.31;5091427;28;20082;-57
2023/12/28 10:01:55;;;;;;;25.42;5.22;;;;;;;9.98;89.30;101108.69;5094341;28;20051;-57
2023/12/28 10:04:23;;;;;;;20.45;5.55;;;;;;;10.04;88.45;101102.16;5091817;28;20111;-57
2023/12/28 10:06:48;;;;;;;7.70;2.92;;;;;;;10.06;88.90;101097.59;5093553;28;20024;-57
2023/12/28 10:09:16;;;;;;;9.43;3.03;;;;;;;10.09;89.10;101108.06;5094164;28;20485;-57
2023/12/28 10:11:44;;;;;;;14.15;3.50;;;;;;;10.18;87.98;101115.53;5088204;28;20052;-58
2023/12/28 10:14:09;;;;;;;10.85;3.03;;;;;;;10.09;88.87;101102.75;5094772;28;20449;-57
2023/12/28 10:16:35;;;;;;;11.77;3.13;;;;;;;10.05;89.25;101114.50;5100133;28;20061;-57
2023/12/28 10:19:00;;;;;;;9.77;3.63;;;;;;;10.09;89.65;101102.75;5121973;27;20031;-57
2023/12/28 10:21:26;;;;;;;18.13;5.13;;;;;;;9.97;90.03;101094.56;5102314;28;20101;-57
2023/12/28 10:23:52;;;;;;;16.35;4.35;;;;;;;10.09;89.13;101103.63;5105103;28;20031;-57
2023/12/28 10:26:21;;;;;;;14.48;3.92;;;;;;;10.16;89.36;101115.59;5106404;28;20040;-57
2023/12/28 10:28:48;;;;;;;17.55;3.85;;;;;;;10.11;89.60;101106.19;5085744;28;20036;-57
2023/12/28 10:31:14;;;;;;;13.13;3.40;;;;;;;10.13;88.66;101112.28;5092355;28;20509;-57
2023/12/28 10:33:40;;;;;;;22.40;5.38;;;;;;;10.08;89.20;101109.00;5092290;28;20031;-57
2023/12/28 10:36:07;;;;;;;14.32;4.18;;;;;;;10.07;88.75;101091.38;5092259;28;20028;-58
2023/12/28 10:38:37;;;;;;;14.48;3.70;;;;;;;10.17;88.98;101096.06;5092028;28;20620;-58
2023/12/28 10:41:07;;;;;;;16.73;3.33;;;;;;;10.14;89.69;101093.56;5092971;28;20479;-58
2023/12/28 10:43:45;;;;;;;8.15;3.28;;;;;;;10.50;87.50;101091.56;5094036;28;20024;-57
2023/12/28 10:46:19;;;;;;;12.25;3.10;;;;;;;10.46;87.11;101089.06;5097175;28;20091;-57
2023/12/28 10:48:46;;;;;;;16.42;4.40;;;;;;;10.65;85.85;101082.69;5091608;28;20044;-57
2023/12/28 10:51:17;;;;;;;15.27;3.30;;;;;;;10.88;84.57;101083.94;5100504;28;20118;-57
2023/12/28 10:54:06;;;;;;;19.10;5.10;;;;;;;10.99;84.11;101101.94;5099539;28;20554;-57
2023/12/28 10:56:47;;;;;;;17.52;5.35;;;;;;;11.17;81.87;101086.63;5097010;28;20024;-57
2023/12/28 10:59:28;;;;;;;20.27;5.60;;;;;;;11.20;81.70;101091.78;5099224;28;20028;-57
2023/12/28 11:01:56;;;;;;;11.10;2.95;;;;;;;11.40;80.69;101086.06;5095552;28;20050;-58
2023/12/28 11:04:42;;;;;;;11.52;3.28;;;;;;;11.34;81.72;101086.44;5085471;28;20038;-57
2023/12/28 11:07:11;;;;;;;22.10;6.43;;;;;;;11.27;80.57;101082.47;5098323;28;20420;-57
2023/12/28 11:09:37;;;;;;;9.57;3.55;;;;;;;11.46;80.43;101106.97;5091286;28;20056;-57
2023/12/28 11:12:06;;;;;;;12.90;3.55;;;;;;;11.16;80.86;101082.28;5091486;28;20020;-57
2023/12/28 11:14:34;;;;;;;23.65;6.40;;;;;;;11.06;81.92;101082.84;5093595;28;20046;-57
2023/12/28 11:17:03;;;;;;;18.88;5.50;;;;;;;11.03;81.56;101082.16;5094160;28;20096;-57
2023/12/28 11:19:29;;;;;;;11.43;3.38;;;;;;;11.06;81.56;101082.84;5103805;28;20023;-57
2023/12/28 11:21:56;;;;;;;18.80;5.05;;;;;;;11.00;80.97;101085.00;5093392;28;20027;-57
2023/12/28 11:24:23;;;;;;;20.20;5.60;;;;;;;11.01;80.84;101106.22;5099942;28;20545;-57